x

Nickerson Bank (44251) Wave Buoy

4:00am - Mon 29th Dec 2014 All times are UTC.

  • Sig Wave height 5.6ft
  • Peak Period 8s
  • Wind
    2mph
  • Sea Temp 40°f
  • Air Temp 36°f
  • Sea Pressure 998mb

More Historic Weather Station data

Upgrade to MSW Pro to gain access to the past 30 days of data for over 8000 Wavebouys and Weather Stations around the globe.

Join Pro

Comparision Forecast

View Surf forecast
   
Mon 12/29 4:00am 5.5ft 8s 2
mph
998mb 40f 36f
3:00am 5.5ft 10s 2 4 mph 998.7mb 40f 35f
2:00am 6ft 9s 9
mph
1000.2mb 40f 35f
1:00am 5.5ft 8s 11 13 mph 1001.6mb 41f 34f
12:00am 6ft 9s 13
mph
1003mb 41f 34f
Sun 12/28 11:00pm 7ft 9s 16 20 mph 1004.4mb 41f 34f
10:00pm 7ft 8s 16 18 mph 1005.3mb 41f 34f
9:00pm 7.5ft 9s 18 20 mph 1005.8mb 41f 35f
8:00pm 8ft 8s 13 18 mph 1006.8mb 41f 36f
7:00pm 8ft 10s 18 20 mph 1007.6mb 41f 36f
6:00pm 8ft 10s 18 25 mph 1007.8mb 41f 36f
5:00pm 8ft 10s 25 29 mph 1008.5mb 41f 36f
4:00pm 8.5ft 10s 16 25 mph 1008.7mb 41f 37f
3:00pm 9ft 10s 18 27 mph 1010.1mb 41f 37f
2:00pm 9ft 10s 22 27 mph 1010.5mb 41f 37f
1:00pm 9ft 10s 22 29 mph 1010.4mb 41f 36f
12:00pm 9ft 10s 22 29 mph 1010.5mb 41f 36f
11:00am 9.5ft 9s 22 27 mph 1010.5mb 41f 36f
10:00am 10ft 10s 22 29 mph 1010.1mb 41f 36f
9:00am 10.5ft 11s 22 29 mph 1009.8mb 41f 36f
8:00am 10ft 10s 27 31 mph 1009.3mb 40f 36f
7:00am 10.5ft 9s 22 29 mph 1009.6mb 40f 35f
6:00am 10.5ft 10s 25 31 mph 1009.5mb 40f 36f
5:00am 10.5ft 9s 29 38 mph 1008.9mb 40f 35f
4:00am 11ft 9s 25 29 mph 1008.6mb 40f 36f
3:00am 10.5ft 9s 27 31 mph 1008.3mb 41f 36f
2:00am 10.5ft 10s 27 34 mph 1008mb 41f 36f
1:00am 10ft 10s 25 31 mph 1007.9mb 41f 36f
12:00am 9.5ft 10s 27 31 mph 1007.8mb 41f 37f
Sat 12/27 11:00pm 9ft 10s 22 29 mph 1007.4mb 41f 36f
10:00pm 9ft 10s 27 36 mph 1006.9mb 41f 34f
9:00pm 10ft 10s 22 27 mph 1006.6mb 41f 37f
8:00pm 10ft 10s 22 29 mph 1006.4mb 41f 37f
7:00pm 9.5ft 10s 22 27 mph 1006.3mb 41f 36f
6:00pm 10ft 10s 20 27 mph 1005.7mb 41f 38f
5:00pm 9ft 9s 22 27 mph 1005.8mb 41f 37f
4:00pm 9.5ft 10s 25 29 mph 1006.1mb 41f 38f
3:00pm 9.5ft 10s 22 27 mph 1007mb 41f 38f
2:00pm 9ft 9s 20 27 mph 1007.5mb 41f 38f
1:00pm 9.5ft 10s 20 29 mph 1007.6mb 41f 36f
12:00pm 10ft 10s 18 27 mph 1007.2mb 41f 38f
11:00am 10ft 10s 20 25 mph 1007mb 41f 38f
10:00am 9.5ft 9s 18 22 mph 1006.7mb 41f 39f
9:00am 9ft 10s 22 29 mph 1006.3mb 41f 39f
8:00am 8.5ft 10s 20 27 mph 1006.1mb 41f 38f
7:00am 8.5ft 12s 20 27 mph 1006.2mb 41f 38f
6:00am 7.5ft 12s 22 27 mph 1006.1mb 41f 38f
5:00am 8ft 11s 20 25 mph 1005.8mb 41f 39f
4:00am 7.5ft 12s 18 22 mph 1006.1mb 41f 39f
3:00am 7.5ft 10s 18 25 mph 1006.3mb 41f 39f
2:00am 8ft 12s 18 22 mph 1006.3mb 41f 38f
1:00am 8ft 9s 18 25 mph 1006.6mb 41f 37f
12:00am 8.5ft 10s 16 22 mph 1006.7mb 41f 39f
Fri 12/26 11:00pm 8.5ft 10s 18 22 mph 1006.3mb 41f 39f
10:00pm 8ft 10s 16 20 mph 1005.8mb 41f 39f
9:00pm 9ft 10s 16 20 mph 1005.4mb 41f 40f
8:00pm 9ft 10s 13 18 mph 1004.8mb 41f 39f
7:00pm 10ft 10s 16 20 mph 1004.2mb 41f 40f
6:00pm 10ft 8s 16 20 mph 1003.8mb 41f 40f
5:00pm 11ft 9s 16 20 mph 1003.2mb 41f 40f
4:00pm 11ft 10s 13 18 mph 1002.8mb 41f 40f
3:00pm 11ft 8s 9 13 mph 1003.2mb 41f 39f
2:00pm 12ft 8s 9 11 mph 1003.5mb 41f 40f
1:00pm 13ft 9s 11 16 mph 1003.4mb 41f 40f
12:00pm 13ft 8s 20 27 mph 1003mb 41f 43f
11:00am 13ft 8s 18 22 mph 1002.6mb 41f 42f
10:00am 13.5ft 8s 18 27 mph 1002mb 41f 42f
9:00am 14ft 9s 11 13 mph 1004.1mb 41f 41f
8:00am 15ft 8s 13 16 mph 1005.6mb 41f 41f
7:00am  -   -  27
mph
1004mb - 41f
6:00am 14ft 8s 29 34 mph 1004.1mb 41f 41f
5:00am 13.5ft 8s 31 38 mph 1004.5mb 40f 41f
4:00am 14ft 8s 31 38 mph 1006.9mb 40f 41f
3:00am 12.5ft 7s 31 38 mph 1008.6mb 40f 41f
2:00am 12ft 12s 29 38 mph 1010.5mb 41f 40f
1:00am 12ft 6s 29 34 mph 1012.7mb 41f 40f
12:00am 11.5ft 7s 27 34 mph 1014.6mb 41f 40f
Thu 12/25 11:00pm 10.5ft 14s 25 31 mph 1016.4mb 41f 39f
10:00pm 10ft 12s 22 29 mph 1018.1mb 40f 39f
9:00pm 9ft 12s 27 31 mph 1018.8mb 40f 39f
8:00pm 9.5ft 11s 20 25 mph 1020.3mb 40f 39f
6:00pm 8ft 11s 18 22 mph 1022.3mb 40f 38f
5:00pm 7ft 11s 20 25 mph 1022.5mb 40f 38f
4:00pm 7ft 12s 18 22 mph 1024.2mb 40f 38f
3:00pm 6.5ft 14s 18 22 mph 1025.5mb 40f 37f
2:00pm 6ft 10s 18 22 mph 1027mb 40f 37f
1:00pm 6ft 10s 18 22 mph 1027.6mb 40f 37f
12:00pm 6ft 10s 16 20 mph 1028mb 40f 37f
11:00am 5.5ft 11s 13 18 mph 1028.2mb 40f 37f
10:00am 6ft 10s 13 16 mph 1028.5mb 40f 37f
9:00am 5ft 10s 13 16 mph 1028.6mb 40f 37f
8:00am 6ft 9s 13 16 mph 1028.7mb 40f 36f
7:00am 5ft 10s 11 13 mph 1029.3mb 40f 35f
6:00am 5ft 9s 11 16 mph 1030.2mb 40f 35f